createdAt,value
2018-10-05T03:38:30.388Z,0.00
2018-10-05T03:39:30.362Z,0.00
2018-10-05T03:41:22.281Z,0.00
2018-10-05T03:42:22.267Z,0.00
2018-10-05T03:44:14.190Z,0.00
2018-10-05T03:45:14.169Z,0.00
2018-10-05T03:47:06.084Z,0.00
2018-10-05T03:48:06.093Z,0.00
2018-10-05T03:49:58.023Z,0.00
2018-10-05T03:50:58.009Z,0.00
2018-10-05T03:52:49.930Z,0.00
2018-10-05T03:53:49.928Z,0.00
2018-10-05T03:55:41.851Z,0.00
2018-10-05T03:56:41.840Z,0.00
2018-10-05T03:58:33.751Z,0.00
2018-10-05T03:59:33.764Z,0.00
2018-10-05T04:01:25.684Z,0.00
2018-10-05T04:02:25.669Z,0.00
2018-10-05T04:04:17.602Z,0.00
2018-10-05T04:05:17.584Z,0.00
2018-10-05T04:07:09.498Z,0.00
2018-10-05T04:08:09.513Z,0.00
2018-10-05T04:10:01.440Z,0.00
2018-10-05T04:11:01.421Z,0.00
2018-10-05T04:12:53.337Z,0.00
2018-10-05T04:13:53.362Z,0.00
2018-10-05T04:15:45.283Z,0.00
2018-10-05T04:16:45.267Z,0.00
2018-10-05T04:18:37.170Z,0.00
2018-10-05T04:19:37.176Z,0.00
2018-10-05T04:21:29.120Z,0.00
2018-10-05T04:22:29.104Z,0.00
2018-10-05T04:24:21.051Z,0.00
2018-10-05T04:25:21.025Z,0.00
2018-10-05T04:27:13.503Z,0.00
2018-10-05T04:28:13.434Z,0.00
2018-10-05T04:30:05.398Z,0.00
2018-10-05T04:31:05.364Z,0.00
2018-10-05T04:32:57.266Z,0.00
2018-10-05T04:33:57.273Z,0.00
2018-10-05T04:35:49.239Z,0.00
2018-10-05T04:36:49.193Z,0.00
2018-10-05T04:38:41.100Z,0.00
2018-10-05T04:39:41.115Z,0.00
2018-10-05T04:41:33.034Z,0.00
2018-10-05T04:42:33.020Z,0.00
2018-10-05T04:44:24.949Z,0.00
2018-10-05T04:45:24.937Z,0.00
2018-10-05T04:47:16.896Z,0.00
2018-10-05T04:48:16.861Z,0.00
2018-10-05T04:50:08.797Z,0.00
2018-10-05T04:51:08.783Z,0.00
2018-10-05T04:53:00.708Z,0.00
2018-10-05T04:54:00.715Z,0.00
2018-10-05T04:55:52.648Z,0.00
2018-10-05T04:56:52.696Z,0.00
2018-10-05T04:58:44.554Z,0.00
2018-10-05T04:59:44.558Z,0.00
2018-10-05T05:01:36.487Z,0.00
2018-10-05T05:02:36.471Z,0.00
2018-10-05T05:04:28.386Z,0.00
2018-10-05T05:05:28.394Z,0.00
2018-10-05T05:07:20.330Z,0.00
2018-10-05T05:08:20.326Z,0.00
2018-10-05T05:10:12.249Z,0.00
2018-10-05T05:11:12.235Z,4.00
2018-10-05T05:13:04.145Z,0.00
2018-10-05T05:14:04.147Z,4.00
2018-10-05T05:15:56.080Z,4.00
2018-10-05T05:16:56.062Z,4.00
2018-10-05T05:18:48.015Z,8.00
2018-10-05T05:19:48.045Z,8.00
2018-10-05T05:21:39.950Z,12.00
2018-10-05T05:22:39.938Z,12.00
2018-10-05T05:24:31.850Z,16.00
2018-10-05T05:25:31.854Z,16.00
2018-10-05T05:27:23.786Z,24.00
2018-10-05T05:28:23.769Z,32.00
2018-10-05T05:30:15.711Z,36.00
2018-10-05T05:31:15.699Z,40.00
2018-10-05T05:33:07.610Z,52.00
2018-10-05T05:34:07.658Z,56.00
2018-10-05T05:35:59.540Z,72.00
2018-10-05T05:36:59.530Z,80.00
2018-10-05T05:38:51.439Z,92.00
2018-10-05T05:39:51.451Z,104.00
2018-10-05T05:41:43.398Z,120.00
2018-10-05T05:42:43.399Z,132.00
2018-10-05T05:44:35.293Z,156.00
2018-10-05T05:45:35.337Z,164.00
2018-10-05T05:47:27.231Z,188.00
2018-10-05T05:48:27.222Z,204.00
2018-10-05T05:50:19.153Z,232.00
2018-10-05T05:51:19.144Z,244.00
2018-10-05T05:53:11.074Z,272.00
2018-10-05T05:54:11.141Z,288.00
2018-10-05T05:56:03.213Z,320.00
2018-10-05T05:57:03.205Z,336.00
2018-10-05T05:58:55.124Z,360.00
2018-10-05T05:59:55.132Z,380.00
2018-10-05T06:01:47.073Z,412.00
2018-10-05T06:02:47.058Z,424.00
2018-10-05T06:04:39.001Z,460.00
2018-10-05T06:05:38.999Z,472.00
2018-10-05T06:07:31.019Z,504.00
2018-10-05T06:08:30.926Z,520.00
2018-10-05T06:10:22.862Z,548.00
2018-10-05T06:11:22.859Z,560.00
2018-10-05T06:13:14.786Z,588.00
2018-10-05T06:14:14.781Z,604.00
2018-10-05T06:16:06.847Z,628.00
2018-10-05T06:17:06.707Z,640.00
2018-10-05T06:18:58.632Z,664.00
2018-10-05T06:19:58.638Z,680.00
2018-10-05T06:21:50.692Z,752.00
2018-10-05T06:22:50.554Z,764.00
2018-10-05T06:24:42.476Z,800.00
2018-10-05T06:25:42.482Z,768.00
2018-10-05T06:27:34.404Z,784.00
2018-10-05T06:28:34.416Z,800.00
2018-10-05T06:30:26.342Z,828.00
2018-10-05T06:31:26.312Z,916.00
2018-10-05T06:33:18.262Z,880.00
2018-10-05T06:34:18.275Z,872.00
2018-10-05T06:36:10.196Z,912.00
2018-10-05T06:37:10.178Z,924.00
2018-10-05T06:39:02.177Z,924.00
2018-10-05T06:40:02.153Z,940.00
2018-10-05T06:41:54.057Z,960.00
2018-10-05T06:42:54.049Z,980.00
2018-10-05T06:44:45.947Z,1008.00
2018-10-05T06:45:46.022Z,1016.00
2018-10-05T06:47:37.875Z,1036.00
2018-10-05T06:48:37.924Z,1072.00
2018-10-05T06:50:29.818Z,1104.00
2018-10-05T06:51:29.902Z,1044.00
2018-10-05T06:53:21.839Z,1060.00
2018-10-05T06:54:21.742Z,1088.00
2018-10-05T06:56:13.699Z,1088.00
2018-10-05T06:57:13.640Z,1096.00
2018-10-05T06:59:05.558Z,1108.00
2018-10-05T07:00:05.648Z,1116.00
2018-10-05T07:01:57.552Z,1128.00
2018-10-05T07:02:57.515Z,1140.00
2018-10-05T07:04:49.481Z,1156.00
2018-10-05T07:05:49.409Z,1164.00
2018-10-05T07:07:41.491Z,1176.00
2018-10-05T07:08:41.310Z,1184.00
2018-10-05T07:10:33.229Z,1200.00
2018-10-05T07:11:33.314Z,1208.00
2018-10-05T07:13:25.220Z,1224.00
2018-10-05T07:14:25.168Z,1232.00
2018-10-05T07:16:17.102Z,1248.00
2018-10-05T07:17:17.106Z,1260.00
2018-10-05T07:19:09.028Z,1284.00
2018-10-05T07:20:09.017Z,1292.00
2018-10-05T07:22:00.950Z,1316.00
2018-10-05T07:23:00.987Z,1328.00
2018-10-05T07:24:52.860Z,1356.00
2018-10-05T07:25:52.860Z,1368.00
2018-10-05T07:27:44.810Z,1392.00
2018-10-05T07:28:44.917Z,1408.00
2018-10-05T07:30:36.696Z,1440.00
2018-10-05T07:31:36.704Z,1452.00
2018-10-05T07:33:29.128Z,1492.00
2018-10-05T07:34:29.198Z,1512.00
2018-10-05T07:36:21.055Z,1544.00
2018-10-05T07:37:21.095Z,1564.00
2018-10-05T07:39:12.961Z,1588.00
2018-10-05T07:40:12.965Z,1592.00
2018-10-05T07:42:04.919Z,1612.00
2018-10-05T07:43:04.961Z,1624.00
2018-10-05T07:44:56.806Z,1624.00
2018-10-05T07:45:56.818Z,1664.00
2018-10-05T07:47:48.747Z,1680.00
2018-10-05T07:48:48.760Z,1680.00
2018-10-05T07:50:40.650Z,1696.00
2018-10-05T07:51:40.740Z,1700.00
2018-10-05T07:53:32.585Z,1724.00
2018-10-05T07:54:32.581Z,1732.00
2018-10-05T07:56:24.561Z,1744.00
2018-10-05T07:57:24.525Z,1748.00
2018-10-05T07:59:16.429Z,1716.00
2018-10-05T08:00:16.440Z,1740.00
2018-10-05T08:02:08.375Z,1768.00
2018-10-05T08:03:08.358Z,1776.00
2018-10-05T08:05:00.274Z,1796.00
2018-10-05T08:06:00.278Z,1800.00
2018-10-05T08:07:52.219Z,1828.00
2018-10-05T08:08:52.217Z,1840.00
2018-10-05T08:10:44.123Z,1864.00
2018-10-05T08:11:44.136Z,1868.00
2018-10-05T08:13:36.076Z,1884.00
2018-10-05T08:14:36.064Z,1892.00
2018-10-05T08:16:27.993Z,1896.00
2018-10-05T08:17:27.988Z,1904.00
2018-10-05T08:19:19.897Z,1912.00
2018-10-05T08:20:19.903Z,1904.00
2018-10-05T08:22:11.847Z,1924.00
2018-10-05T08:23:11.833Z,1940.00
2018-10-05T08:25:04.263Z,1940.00
2018-10-05T08:26:04.275Z,1964.00
2018-10-05T08:27:56.769Z,1940.00
2018-10-05T08:28:56.695Z,1980.00
2018-10-05T08:30:48.607Z,1940.00
2018-10-05T08:31:48.617Z,1924.00
2018-10-05T08:32:48.635Z,1916.00
2018-10-05T08:33:48.653Z,1964.00
2018-10-05T08:34:48.680Z,1996.00
2018-10-05T08:35:48.687Z,2000.00
2018-10-05T08:36:48.709Z,2012.00
2018-10-05T08:37:48.725Z,2004.00
2018-10-05T08:38:48.761Z,2004.00
2018-10-05T08:39:48.847Z,1996.00
2018-10-05T08:40:48.791Z,1996.00
2018-10-05T08:41:48.794Z,1988.00
2018-10-05T08:42:48.812Z,1984.00
2018-10-05T08:43:48.828Z,1988.00
2018-10-05T08:44:48.849Z,1912.00
2018-10-05T08:45:48.938Z,1976.00
2018-10-05T08:46:48.883Z,1964.00
2018-10-05T08:47:48.904Z,1960.00
2018-10-05T08:48:48.933Z,1960.00
2018-10-05T08:49:48.938Z,1920.00
2018-10-05T08:50:48.964Z,1880.00
2018-10-05T08:51:49.068Z,1892.00
2018-10-05T08:52:48.991Z,1904.00
2018-10-05T08:53:49.011Z,1904.00
2018-10-05T08:54:49.030Z,1904.00
2018-10-05T08:55:49.049Z,1900.00
2018-10-05T08:56:49.072Z,1888.00
2018-10-05T08:57:49.083Z,1888.00
2018-10-05T08:58:49.102Z,1880.00
2018-10-05T08:59:49.151Z,1860.00
2018-10-05T09:00:49.138Z,1828.00
2018-10-05T09:01:49.155Z,1856.00
2018-10-05T09:02:49.174Z,1864.00
2018-10-05T09:03:49.207Z,1772.00
2018-10-05T09:04:49.214Z,1776.00
2018-10-05T09:05:49.341Z,1856.00
2018-10-05T09:06:49.258Z,1844.00
2018-10-05T09:07:49.268Z,1828.00
2018-10-05T09:08:49.293Z,1828.00
2018-10-05T09:09:49.302Z,1820.00
2018-10-05T09:10:49.327Z,1812.00
2018-10-05T09:11:49.345Z,1812.00
2018-10-05T09:12:49.370Z,1804.00
2018-10-05T09:13:49.379Z,1796.00
2018-10-05T09:14:49.398Z,1788.00
2018-10-05T09:15:49.419Z,1788.00
2018-10-05T09:16:49.438Z,1784.00
2018-10-05T09:17:49.514Z,1688.00
2018-10-05T09:18:49.473Z,1760.00
2018-10-05T09:19:49.491Z,1752.00
2018-10-05T09:20:49.509Z,1748.00
2018-10-05T09:21:49.530Z,1732.00
2018-10-05T09:22:49.550Z,1728.00
2018-10-05T09:23:49.586Z,1724.00
2018-10-05T09:24:49.585Z,1720.00
2018-10-05T09:25:49.602Z,1716.00
2018-10-05T09:26:49.625Z,1708.00
2018-10-05T09:27:49.642Z,1676.00
2018-10-05T09:28:49.661Z,1636.00
2018-10-05T09:29:49.680Z,1672.00
2018-10-05T09:30:49.860Z,1676.00
2018-10-05T09:31:49.718Z,1668.00
2018-10-05T09:32:49.734Z,1664.00
2018-10-05T09:33:49.755Z,1664.00
2018-10-05T09:34:49.782Z,1660.00
2018-10-05T09:35:49.793Z,1656.00
2018-10-05T09:36:49.830Z,1656.00
2018-10-05T09:37:49.910Z,1656.00
2018-10-05T09:38:49.870Z,1648.00
2018-10-05T09:39:49.885Z,1644.00
2018-10-05T09:40:49.893Z,1632.00
2018-10-05T09:41:49.918Z,1628.00
2018-10-05T09:42:49.929Z,1612.00
2018-10-05T09:43:49.944Z,1632.00
2018-10-05T09:44:49.981Z,1624.00
2018-10-05T09:45:49.999Z,1620.00
2018-10-05T09:46:50.018Z,1624.00
2018-10-05T09:47:50.051Z,1616.00
2018-10-05T09:48:50.057Z,1624.00
2018-10-05T09:49:50.063Z,1620.00
2018-10-05T09:50:50.090Z,1612.00
2018-10-05T09:51:50.112Z,1616.00
2018-10-05T09:52:50.118Z,1616.00
2018-10-05T09:53:50.144Z,1616.00
2018-10-05T09:54:50.158Z,1600.00
2018-10-05T09:55:50.181Z,1604.00
2018-10-05T09:56:50.198Z,1612.00
2018-10-05T09:57:50.217Z,1608.00
2018-10-05T09:58:50.232Z,1612.00
2018-10-05T09:59:50.342Z,1612.00
2018-10-05T10:00:50.272Z,1624.00
2018-10-05T10:01:50.303Z,1644.00
2018-10-05T10:02:50.312Z,1652.00
2018-10-05T10:03:50.333Z,1640.00
2018-10-05T10:04:50.347Z,1644.00
2018-10-05T10:05:50.371Z,1636.00
2018-10-05T10:06:50.389Z,1596.00
2018-10-05T10:07:50.430Z,1656.00
2018-10-05T10:08:50.431Z,1660.00
2018-10-05T10:09:50.450Z,1676.00
2018-10-05T10:10:50.472Z,1684.00
2018-10-05T10:11:50.496Z,1668.00
2018-10-05T10:12:50.506Z,1692.00
2018-10-05T10:13:50.579Z,1624.00
2018-10-05T10:14:50.559Z,1708.00
2018-10-05T10:15:50.566Z,1704.00
2018-10-05T10:16:50.588Z,1688.00
2018-10-05T10:17:50.608Z,1700.00
2018-10-05T10:18:50.626Z,1700.00
2018-10-05T10:19:50.647Z,1704.00
2018-10-05T10:20:50.664Z,1700.00
2018-10-05T10:21:50.685Z,1704.00
2018-10-05T10:22:50.717Z,1668.00
2018-10-05T10:23:50.722Z,1732.00
2018-10-05T10:24:50.743Z,1744.00
2018-10-05T10:25:50.764Z,1752.00
2018-10-05T10:26:50.795Z,1744.00
2018-10-05T10:27:50.810Z,1756.00
2018-10-05T10:28:51.017Z,1748.00
2018-10-05T10:29:50.849Z,1756.00
2018-10-05T10:30:50.871Z,1756.00
2018-10-05T10:31:50.881Z,1744.00
2018-10-05T10:32:50.901Z,1756.00
2018-10-05T10:33:50.922Z,1768.00
2018-10-05T10:34:50.958Z,1764.00
2018-10-05T10:35:50.959Z,1764.00
2018-10-05T10:36:51.052Z,1792.00
2018-10-05T10:37:51.006Z,1816.00
2018-10-05T10:38:51.041Z,1832.00
2018-10-05T10:39:51.076Z,1832.00
2018-10-05T10:40:51.060Z,1832.00
2018-10-05T10:41:51.079Z,1820.00
2018-10-05T10:42:51.101Z,1824.00
2018-10-05T10:43:51.122Z,1828.00
2018-10-05T10:44:51.144Z,1840.00
2018-10-05T10:45:51.159Z,1844.00
2018-10-05T10:46:51.188Z,1856.00
2018-10-05T10:47:51.199Z,1796.00
2018-10-05T10:48:51.219Z,1868.00
2018-10-05T10:49:51.239Z,1876.00
2018-10-05T10:50:51.265Z,1880.00
2018-10-05T10:51:51.312Z,1880.00
2018-10-05T10:52:51.300Z,1880.00
2018-10-05T10:53:51.323Z,1892.00
2018-10-05T10:54:51.343Z,1892.00
2018-10-05T10:55:51.372Z,1896.00
2018-10-05T10:56:51.382Z,1812.00
2018-10-05T10:57:51.410Z,1868.00
2018-10-05T10:58:51.420Z,1824.00
2018-10-05T10:59:51.442Z,1916.00
2018-10-05T11:00:51.571Z,1856.00
2018-10-05T11:01:51.488Z,1856.00
2018-10-05T11:02:51.500Z,1904.00
2018-10-05T11:03:51.562Z,1896.00
2018-10-05T11:04:51.625Z,1900.00
2018-10-05T11:05:51.561Z,1904.00
2018-10-05T11:06:51.583Z,1900.00
2018-10-05T11:07:51.605Z,1904.00
2018-10-05T11:08:51.618Z,1904.00
2018-10-05T11:09:51.644Z,1916.00
2018-10-05T11:10:51.707Z,1908.00
2018-10-05T11:11:51.683Z,1916.00
2018-10-05T11:12:51.701Z,1916.00
2018-10-05T11:13:51.741Z,1900.00
2018-10-05T11:14:51.742Z,1900.00
2018-10-05T11:15:51.764Z,1868.00
2018-10-05T11:16:51.847Z,1948.00
2018-10-05T11:17:51.815Z,1932.00
2018-10-05T11:18:51.825Z,1928.00
2018-10-05T11:19:51.848Z,1936.00
2018-10-05T11:20:51.921Z,1944.00
2018-10-05T11:21:51.895Z,1944.00
2018-10-05T11:22:51.907Z,1940.00
2018-10-05T11:23:51.931Z,1932.00
2018-10-05T11:24:51.951Z,1940.00
2018-10-05T11:25:52.147Z,1940.00
2018-10-05T11:26:51.992Z,1880.00
2018-10-05T11:27:52.008Z,1796.00
2018-10-05T11:28:52.029Z,1932.00
2018-10-05T11:29:52.175Z,1940.00
2018-10-05T11:30:52.074Z,1968.00
2018-10-05T11:31:52.094Z,1972.00
2018-10-05T11:32:52.113Z,1936.00
2018-10-05T11:33:52.135Z,1956.00
2018-10-05T11:34:52.157Z,1992.00
2018-10-05T11:35:52.187Z,1972.00
2018-10-05T11:36:52.193Z,1964.00
2018-10-05T11:37:52.215Z,1988.00
2018-10-05T11:38:52.237Z,1944.00
2018-10-05T11:39:52.265Z,1976.00
2018-10-05T11:40:52.340Z,2012.00
2018-10-05T11:41:52.295Z,2012.00
2018-10-05T11:42:52.321Z,2028.00
2018-10-05T11:43:52.338Z,2032.00
2018-10-05T11:44:52.359Z,2028.00
2018-10-05T11:45:52.387Z,2028.00
2018-10-05T11:46:52.402Z,2036.00
2018-10-05T11:47:52.422Z,2028.00
2018-10-05T11:48:52.444Z,2032.00
2018-10-05T11:49:52.467Z,2044.00
2018-10-05T11:50:52.483Z,2040.00
2018-10-05T11:51:52.507Z,2052.00
2018-10-05T11:52:52.526Z,2052.00
2018-10-05T11:53:52.546Z,2076.00
2018-10-05T11:54:52.574Z,2072.00
2018-10-05T11:55:52.589Z,2084.00
2018-10-05T11:56:52.617Z,2080.00
2018-10-05T11:57:52.633Z,2084.00
2018-10-05T11:58:52.967Z,2040.00
2018-10-05T11:59:52.813Z,2088.00
2018-10-05T12:00:52.695Z,2080.00
2018-10-05T12:01:52.712Z,2100.00
2018-10-05T12:02:52.736Z,2104.00
2018-10-05T12:03:52.757Z,2104.00
2018-10-05T12:04:52.776Z,2096.00
2018-10-05T12:05:52.795Z,2092.00
2018-10-05T12:06:52.819Z,2084.00
2018-10-05T12:07:52.839Z,2104.00
2018-10-05T12:08:52.861Z,2116.00
2018-10-05T12:09:52.882Z,2128.00
2018-10-05T12:10:52.903Z,2144.00
2018-10-05T12:11:52.926Z,2088.00
2018-10-05T12:12:52.948Z,2080.00
2018-10-05T12:13:53.042Z,2160.00
2018-10-05T12:14:52.990Z,2168.00
2018-10-05T12:15:53.010Z,2176.00
2018-10-05T12:16:53.030Z,2208.00
2018-10-05T12:17:53.049Z,1852.00
2018-10-05T12:18:53.080Z,2084.00
2018-10-05T12:19:53.149Z,2236.00
2018-10-05T12:20:53.118Z,2224.00
2018-10-05T12:21:53.135Z,2236.00
2018-10-05T12:22:53.160Z,2248.00
2018-10-05T12:23:53.179Z,2252.00
2018-10-05T12:24:53.204Z,2256.00
2018-10-05T12:25:53.223Z,2268.00
2018-10-05T12:26:53.243Z,2276.00
2018-10-05T12:27:53.261Z,2272.00
2018-10-05T12:28:53.285Z,2276.00
2018-10-05T12:29:53.312Z,2204.00
2018-10-05T12:30:53.327Z,2280.00
2018-10-05T12:31:53.352Z,2288.00
2018-10-05T12:32:53.369Z,2288.00
2018-10-05T12:33:53.395Z,2296.00
2018-10-05T12:34:53.423Z,2308.00
2018-10-05T12:35:53.437Z,2160.00
2018-10-05T12:36:53.463Z,2220.00
2018-10-05T12:37:53.479Z,2296.00
2018-10-05T12:38:53.502Z,2288.00
2018-10-05T12:39:53.524Z,2264.00
2018-10-05T12:40:53.541Z,2224.00
2018-10-05T12:41:53.575Z,2236.00
2018-10-05T12:42:53.607Z,2144.00
2018-10-05T12:43:53.612Z,2144.00
2018-10-05T12:44:53.631Z,2136.00
2018-10-05T12:45:53.651Z,2128.00
2018-10-05T12:46:53.673Z,2140.00
2018-10-05T12:47:53.694Z,2116.00
2018-10-05T12:48:53.715Z,2144.00
2018-10-05T12:49:53.742Z,2180.00
2018-10-05T12:50:53.761Z,2212.00
2018-10-05T12:51:53.781Z,2196.00
2018-10-05T12:52:53.809Z,2192.00
2018-10-05T12:53:53.828Z,2176.00
2018-10-05T12:54:53.847Z,2236.00
2018-10-05T12:55:53.867Z,2228.00
2018-10-05T12:56:53.887Z,2204.00
2018-10-05T12:57:53.914Z,2224.00
2018-10-05T12:58:53.937Z,2220.00
2018-10-05T12:59:53.954Z,2056.00
2018-10-05T13:00:53.973Z,2216.00
2018-10-05T13:01:54.005Z,2236.00
2018-10-05T13:02:54.020Z,2208.00
2018-10-05T13:03:54.044Z,2216.00
2018-10-05T13:04:54.100Z,2200.00
2018-10-05T13:05:54.087Z,2196.00
2018-10-05T13:06:54.107Z,2184.00
2018-10-05T13:07:54.128Z,2108.00
2018-10-05T13:08:54.152Z,2144.00
2018-10-05T13:09:54.183Z,2168.00
2018-10-05T13:10:54.195Z,2164.00
2018-10-05T13:11:54.253Z,2156.00
2018-10-05T13:12:54.240Z,2144.00
2018-10-05T13:13:54.272Z,2156.00
2018-10-05T13:14:54.282Z,2148.00
2018-10-05T13:15:54.306Z,2144.00
2018-10-05T13:16:54.328Z,2136.00
2018-10-05T13:17:54.350Z,2124.00
2018-10-05T13:18:54.372Z,2124.00
2018-10-05T13:19:54.392Z,2116.00
2018-10-05T13:20:54.414Z,2108.00
2018-10-05T13:21:54.456Z,2104.00
2018-10-05T13:22:54.459Z,2088.00
2018-10-05T13:23:54.482Z,2080.00
2018-10-05T13:24:54.571Z,2076.00
2018-10-05T13:25:54.521Z,2064.00
2018-10-05T13:26:54.544Z,2052.00
2018-10-05T13:27:54.567Z,2040.00
2018-10-05T13:28:54.593Z,2036.00
2018-10-05T13:29:54.617Z,2028.00
2018-10-05T13:30:54.646Z,2016.00
2018-10-05T13:31:54.665Z,2000.00
2018-10-05T13:32:54.678Z,1992.00
2018-10-05T13:33:54.756Z,1980.00
2018-10-05T13:34:54.721Z,1968.00
2018-10-05T13:35:54.745Z,1960.00
2018-10-05T13:36:54.779Z,1900.00
2018-10-05T13:37:54.790Z,1956.00
2018-10-05T13:38:54.814Z,1940.00
2018-10-05T13:39:54.831Z,1856.00
2018-10-05T13:40:54.858Z,1928.00
2018-10-05T13:41:54.958Z,1864.00
2018-10-05T13:42:54.896Z,1896.00
2018-10-05T13:43:54.922Z,1888.00
2018-10-05T13:44:54.939Z,1876.00
2018-10-05T13:45:54.977Z,1864.00
2018-10-05T13:46:54.986Z,1860.00
2018-10-05T13:47:55.009Z,1824.00
2018-10-05T13:48:55.025Z,1848.00
2018-10-05T13:49:55.049Z,1832.00
2018-10-05T13:50:55.074Z,1824.00
2018-10-05T13:51:55.099Z,1820.00
2018-10-05T13:52:55.118Z,1800.00
2018-10-05T13:53:55.141Z,1788.00
2018-10-05T13:54:55.166Z,1780.00
2018-10-05T13:55:55.188Z,1776.00
2018-10-05T13:56:55.207Z,1772.00
2018-10-05T13:57:55.228Z,1776.00
2018-10-05T13:58:55.250Z,1740.00
2018-10-05T13:59:55.271Z,1752.00
2018-10-05T14:00:55.294Z,1744.00
2018-10-05T14:01:55.320Z,1756.00
2018-10-05T14:02:55.414Z,1712.00
2018-10-05T14:03:55.361Z,1756.00
2018-10-05T14:04:55.384Z,1620.00
2018-10-05T14:05:55.402Z,1728.00
2018-10-05T14:06:55.437Z,1720.00
2018-10-05T14:07:55.450Z,1708.00
2018-10-05T14:08:55.470Z,1708.00
2018-10-05T14:09:55.495Z,1696.00
2018-10-05T14:10:55.516Z,1684.00
2018-10-05T14:11:55.545Z,1680.00
2018-10-05T14:12:55.562Z,1664.00
2018-10-05T14:13:55.581Z,1656.00
2018-10-05T14:14:55.603Z,1648.00
2018-10-05T14:15:55.629Z,1636.00
2018-10-05T14:16:55.647Z,1636.00
2018-10-05T14:17:55.677Z,1628.00
2018-10-05T14:18:55.690Z,1620.00
2018-10-05T14:19:55.719Z,1616.00
2018-10-05T14:20:55.737Z,1600.00
2018-10-05T14:21:55.757Z,1596.00
2018-10-05T14:22:55.779Z,1592.00
2018-10-05T14:23:55.799Z,1576.00
2018-10-05T14:24:55.823Z,1524.00
2018-10-05T14:25:55.845Z,1548.00
2018-10-05T14:26:55.865Z,1564.00
2018-10-05T14:27:55.891Z,1536.00
2018-10-05T14:28:55.922Z,1560.00
2018-10-05T14:29:55.936Z,1552.00
2018-10-05T14:30:55.957Z,1544.00
2018-10-05T14:31:55.985Z,1540.00
2018-10-05T14:32:56.019Z,1532.00
2018-10-05T14:33:56.109Z,1528.00
2018-10-05T14:34:56.047Z,1524.00
2018-10-05T14:35:56.070Z,1492.00
2018-10-05T14:36:56.091Z,1516.00
2018-10-05T14:37:56.124Z,1512.00
2018-10-05T14:38:56.132Z,1504.00
2018-10-05T14:39:56.154Z,1496.00
2018-10-05T14:40:56.185Z,1456.00
2018-10-05T14:41:56.302Z,1468.00
2018-10-05T14:42:56.226Z,1484.00
2018-10-05T14:43:56.249Z,1480.00
2018-10-05T14:44:56.267Z,1472.00
2018-10-05T14:45:56.323Z,1464.00
2018-10-05T14:46:56.309Z,1464.00
2018-10-05T14:47:56.333Z,1456.00
2018-10-05T14:48:56.353Z,1448.00
2018-10-05T14:49:56.379Z,1444.00
2018-10-05T14:50:56.397Z,1436.00
2018-10-05T14:51:56.420Z,1428.00
2018-10-05T14:52:56.444Z,1420.00
2018-10-05T14:53:56.471Z,1412.00
2018-10-05T14:54:56.526Z,1412.00
2018-10-05T14:55:56.507Z,1404.00
2018-10-05T14:56:56.539Z,1384.00
2018-10-05T14:57:56.554Z,1388.00
2018-10-05T14:58:56.576Z,1384.00
2018-10-05T14:59:56.595Z,1376.00
2018-10-05T15:00:56.623Z,1372.00
2018-10-05T15:01:56.643Z,1364.00
2018-10-05T15:02:56.661Z,1356.00
2018-10-05T15:03:56.683Z,1352.00
2018-10-05T15:04:56.707Z,1340.00
2018-10-05T15:05:56.726Z,1340.00
2018-10-05T15:06:56.811Z,1336.00
2018-10-05T15:07:56.771Z,1328.00
2018-10-05T15:08:56.794Z,1324.00
2018-10-05T15:09:56.816Z,1312.00
2018-10-05T15:10:56.843Z,1304.00
2018-10-05T15:11:56.871Z,1280.00
2018-10-05T15:12:56.951Z,1276.00
2018-10-05T15:13:56.905Z,1280.00
2018-10-05T15:14:56.929Z,1252.00
2018-10-05T15:15:56.946Z,1248.00
2018-10-05T15:16:56.968Z,1256.00
2018-10-05T15:17:56.991Z,1244.00
2018-10-05T15:18:57.014Z,1236.00
2018-10-05T15:19:57.035Z,1220.00
2018-10-05T15:20:57.060Z,1220.00
2018-10-05T15:21:57.083Z,1208.00
2018-10-05T15:22:57.106Z,1184.00
2018-10-05T15:23:57.121Z,1192.00
2018-10-05T15:24:57.145Z,1180.00
2018-10-05T15:25:57.166Z,1168.00
2018-10-05T15:26:57.189Z,1160.00
2018-10-05T15:27:57.212Z,1148.00
2018-10-05T15:28:57.232Z,1132.00
2018-10-05T15:29:57.253Z,1120.00
2018-10-05T15:30:57.276Z,1108.00
2018-10-05T15:31:57.307Z,1092.00
2018-10-05T15:32:57.318Z,1076.00
2018-10-05T15:33:57.337Z,1060.00
2018-10-05T15:34:57.365Z,1048.00
2018-10-05T15:35:57.391Z,1036.00
2018-10-05T15:36:57.413Z,1024.00
2018-10-05T15:37:57.428Z,1012.00
2018-10-05T15:38:57.578Z,1000.00
2018-10-05T15:39:57.467Z,992.00
2018-10-05T15:40:57.492Z,980.00
2018-10-05T15:41:57.517Z,972.00
2018-10-05T15:42:57.537Z,960.00
2018-10-05T15:43:57.558Z,952.00
2018-10-05T15:44:57.584Z,944.00
2018-10-05T15:45:57.600Z,936.00
2018-10-05T15:46:57.622Z,924.00
2018-10-05T15:47:57.643Z,916.00
2018-10-05T15:48:57.673Z,908.00
2018-10-05T15:49:57.687Z,896.00
2018-10-05T15:50:57.710Z,888.00
2018-10-05T15:51:57.733Z,876.00
2018-10-05T15:52:57.769Z,872.00
2018-10-05T15:53:57.775Z,860.00
2018-10-05T15:54:57.797Z,852.00
2018-10-05T15:55:57.819Z,844.00
2018-10-05T15:56:57.836Z,832.00
2018-10-05T15:57:57.867Z,824.00
2018-10-05T15:58:57.904Z,808.00
2018-10-05T15:59:57.901Z,800.00
2018-10-05T16:00:57.920Z,792.00
2018-10-05T16:01:57.946Z,784.00
2018-10-05T16:02:57.968Z,776.00
2018-10-05T16:03:57.990Z,768.00
2018-10-05T16:04:58.029Z,752.00
2018-10-05T16:05:58.100Z,740.00
2018-10-05T16:06:58.056Z,736.00
2018-10-05T16:07:58.075Z,724.00
2018-10-05T16:08:58.110Z,712.00
2018-10-05T16:09:58.122Z,704.00
2018-10-05T16:10:58.136Z,696.00
2018-10-05T16:11:58.204Z,684.00
2018-10-05T16:12:58.218Z,676.00
2018-10-05T16:13:58.205Z,664.00
2018-10-05T16:14:58.261Z,652.00
2018-10-05T16:15:58.248Z,640.00
2018-10-05T16:16:58.272Z,632.00
2018-10-05T16:17:58.289Z,620.00
2018-10-05T16:18:58.365Z,608.00
2018-10-05T16:19:58.328Z,600.00
2018-10-05T16:20:58.359Z,588.00
2018-10-05T16:21:58.381Z,576.00
2018-10-05T16:22:58.395Z,560.00
2018-10-05T16:23:58.418Z,548.00
2018-10-05T16:24:58.440Z,540.00
2018-10-05T16:25:58.458Z,528.00
2018-10-05T16:26:58.480Z,520.00
2018-10-05T16:27:58.498Z,508.00
2018-10-05T16:28:58.524Z,496.00
2018-10-05T16:29:58.548Z,484.00
2018-10-05T16:30:58.573Z,468.00
2018-10-05T16:31:58.582Z,456.00
2018-10-05T16:32:58.609Z,448.00
2018-10-05T16:33:58.628Z,436.00
2018-10-05T16:34:58.646Z,424.00
2018-10-05T16:35:58.677Z,412.00
2018-10-05T16:36:58.694Z,396.00
2018-10-05T16:37:58.713Z,388.00
2018-10-05T16:38:58.731Z,376.00
2018-10-05T16:39:58.754Z,360.00
2018-10-05T16:40:58.773Z,348.00
2018-10-05T16:41:58.799Z,340.00
2018-10-05T16:42:58.816Z,324.00
2018-10-05T16:43:58.836Z,312.00
2018-10-05T16:44:58.855Z,300.00
2018-10-05T16:45:58.878Z,288.00
2018-10-05T16:46:58.898Z,276.00
2018-10-05T16:47:58.919Z,260.00
2018-10-05T16:48:58.943Z,248.00
2018-10-05T16:49:59.047Z,236.00
2018-10-05T16:50:58.985Z,224.00
2018-10-05T16:51:58.999Z,212.00
2018-10-05T16:52:59.023Z,200.00
2018-10-05T16:53:59.045Z,188.00
2018-10-05T16:54:59.065Z,172.00
2018-10-05T16:55:59.089Z,164.00
2018-10-05T16:56:59.106Z,152.00
2018-10-05T16:57:59.127Z,140.00
2018-10-05T16:58:59.149Z,132.00
2018-10-05T16:59:59.165Z,120.00
2018-10-05T17:00:59.189Z,108.00
2018-10-05T17:01:59.210Z,100.00
2018-10-05T17:02:59.229Z,88.00
2018-10-05T17:03:59.334Z,76.00
2018-10-05T17:04:59.272Z,72.00
2018-10-05T17:05:59.291Z,64.00
2018-10-05T17:06:59.311Z,56.00
2018-10-05T17:07:59.330Z,48.00
2018-10-05T17:08:59.353Z,44.00
2018-10-05T17:09:59.373Z,40.00
2018-10-05T17:10:59.463Z,32.00
2018-10-05T17:11:59.414Z,28.00
2018-10-05T17:12:59.435Z,28.00
2018-10-05T17:13:59.453Z,24.00
2018-10-05T17:14:59.473Z,20.00
2018-10-05T17:15:59.494Z,16.00
2018-10-05T17:16:59.517Z,16.00
2018-10-05T17:17:59.533Z,12.00
2018-10-05T17:18:59.555Z,12.00
2018-10-05T17:19:59.574Z,8.00
2018-10-05T17:20:59.595Z,8.00
2018-10-05T17:21:59.619Z,4.00
2018-10-05T17:22:59.632Z,4.00
2018-10-05T17:23:59.665Z,4.00
2018-10-05T17:24:59.678Z,0.00